createdAt,value
2022-09-28T00:00:42.008Z,10.50
2022-09-28T00:03:09.696Z,10.50
2022-09-28T00:05:36.336Z,10.50
2022-09-28T00:08:03.024Z,10.60
2022-09-28T00:10:29.618Z,10.60
2022-09-28T00:12:56.309Z,10.50
2022-09-28T00:15:24.625Z,10.50
2022-09-28T00:17:51.241Z,10.50
2022-09-28T00:20:19.327Z,10.50
2022-09-28T00:22:45.877Z,10.50
2022-09-28T00:25:12.486Z,10.50
2022-09-28T00:27:39.365Z,10.50
2022-09-28T00:30:07.028Z,10.40
2022-09-28T00:32:33.683Z,10.50
2022-09-28T00:35:00.284Z,10.50
2022-09-28T00:37:26.927Z,10.50
2022-09-28T00:39:53.584Z,10.50
2022-09-28T00:42:22.470Z,10.50
2022-09-28T00:44:53.096Z,10.50
2022-09-28T00:47:26.224Z,10.50
2022-09-28T00:50:00.208Z,10.50
2022-09-28T00:52:38.381Z,10.50
2022-09-28T00:55:08.819Z,10.50
2022-09-28T00:57:37.641Z,10.50
2022-09-28T01:00:05.837Z,10.50
2022-09-28T01:02:32.759Z,10.50
2022-09-28T01:05:01.393Z,10.50
2022-09-28T01:07:28.726Z,10.50
2022-09-28T01:09:56.282Z,10.40
2022-09-28T01:12:22.966Z,10.40
2022-09-28T01:14:50.651Z,10.40
2022-09-28T01:17:25.932Z,10.40
2022-09-28T01:20:07.242Z,10.40
2022-09-28T01:23:01.202Z,10.40
2022-09-28T01:25:47.910Z,10.30
2022-09-28T01:28:16.199Z,10.30
2022-09-28T01:31:03.313Z,10.20
2022-09-28T01:33:48.228Z,10.10
2022-09-28T01:36:29.881Z,10.00
2022-09-28T01:39:02.399Z,9.90
2022-09-28T01:41:36.481Z,9.80
2022-09-28T01:44:08.650Z,9.70
2022-09-28T01:46:47.953Z,9.60
2022-09-28T01:49:22.781Z,9.50
2022-09-28T01:52:17.230Z,9.30
2022-09-28T01:55:15.422Z,9.20
2022-09-28T01:57:53.001Z,9.10
2022-09-28T02:00:21.150Z,9.10
2022-09-28T02:03:12.490Z,9.00
2022-09-28T02:05:51.029Z,8.90
2022-09-28T02:08:38.926Z,8.80
2022-09-28T02:11:15.767Z,8.80
2022-09-28T02:13:43.810Z,8.70
2022-09-28T02:16:19.764Z,8.60
2022-09-28T02:18:49.692Z,8.60
2022-09-28T02:21:38.440Z,8.60
2022-09-28T02:24:20.634Z,8.60
2022-09-28T02:26:50.671Z,8.50
2022-09-28T02:29:20.590Z,8.50
2022-09-28T02:31:47.221Z,8.40
2022-09-28T02:34:13.913Z,8.40
2022-09-28T02:36:40.598Z,8.30
2022-09-28T02:39:14.200Z,8.30
2022-09-28T02:41:50.252Z,8.10
2022-09-28T02:44:48.913Z,8.00
2022-09-28T02:47:54.509Z,7.90
2022-09-28T02:50:51.484Z,7.90
2022-09-28T02:53:45.461Z,7.70
2022-09-28T02:56:37.090Z,7.70
2022-09-28T02:59:42.676Z,7.60
2022-09-28T03:02:36.962Z,7.60
2022-09-28T03:05:06.600Z,7.60
2022-09-28T03:08:00.335Z,7.50
2022-09-28T03:10:43.251Z,7.50
2022-09-28T03:13:12.023Z,7.60
2022-09-28T03:15:38.941Z,7.60
2022-09-28T03:18:05.597Z,7.50
2022-09-28T03:20:33.486Z,7.50
2022-09-28T03:23:23.368Z,7.50
2022-09-28T03:25:47.386Z,7.50
2022-09-28T03:28:14.434Z,7.50
2022-09-28T03:30:42.214Z,7.40
2022-09-28T03:33:08.988Z,7.40
2022-09-28T03:35:35.659Z,7.40
2022-09-28T03:38:02.323Z,7.40
2022-09-28T03:40:30.984Z,7.40
2022-09-28T03:42:57.729Z,7.40
2022-09-28T03:45:25.158Z,7.50
2022-09-28T03:47:52.247Z,7.50
2022-09-28T03:50:18.991Z,7.60
2022-09-28T03:52:45.637Z,7.60
2022-09-28T03:55:12.385Z,7.60
2022-09-28T03:57:39.069Z,7.70
2022-09-28T04:00:06.565Z,7.90
2022-09-28T04:02:40.408Z,7.90
2022-09-28T04:05:07.192Z,8.00
2022-09-28T04:07:33.805Z,8.00
2022-09-28T04:10:00.432Z,8.00
2022-09-28T04:12:27.082Z,8.10
2022-09-28T04:14:53.943Z,8.10
2022-09-28T04:17:20.550Z,8.20
2022-09-28T04:19:48.033Z,8.20
2022-09-28T04:22:37.630Z,8.20
2022-09-28T04:25:04.989Z,8.20
2022-09-28T04:27:50.292Z,8.20
2022-09-28T04:30:17.517Z,8.20
2022-09-28T04:32:48.464Z,8.30
2022-09-28T04:35:15.473Z,8.30
2022-09-28T04:37:42.111Z,8.30
2022-09-28T04:40:09.173Z,8.30
2022-09-28T04:42:36.586Z,8.30
2022-09-28T04:45:04.765Z,8.30
2022-09-28T04:47:33.406Z,8.30
2022-09-28T04:50:18.568Z,8.30
2022-09-28T04:53:04.105Z,8.40
2022-09-28T04:55:32.447Z,8.40
2022-09-28T04:58:03.280Z,8.50
2022-09-28T05:00:35.841Z,8.50
2022-09-28T05:03:28.145Z,8.60
2022-09-28T05:06:17.950Z,8.60
2022-09-28T05:08:48.669Z,8.70
2022-09-28T05:11:16.119Z,8.80
2022-09-28T05:13:45.400Z,8.80
2022-09-28T05:16:15.874Z,8.80
2022-09-28T05:19:01.282Z,8.80
2022-09-28T05:21:29.865Z,8.90
2022-09-28T05:23:58.203Z,8.80
2022-09-28T05:26:25.227Z,8.80
2022-09-28T05:28:51.908Z,8.80
2022-09-28T05:31:41.521Z,8.90
2022-09-28T05:34:25.546Z,8.90
2022-09-28T05:36:53.620Z,8.90
2022-09-28T05:39:20.599Z,9.00
2022-09-28T05:41:47.205Z,9.20
2022-09-28T05:44:13.877Z,9.20
2022-09-28T05:46:40.989Z,9.30
2022-09-28T05:49:09.430Z,9.30
2022-09-28T05:51:36.695Z,9.30
2022-09-28T05:54:06.176Z,9.20
2022-09-28T05:56:35.478Z,9.20
2022-09-28T05:59:06.217Z,9.20
2022-09-28T06:01:32.927Z,9.20
2022-09-28T06:04:01.416Z,9.20
2022-09-28T06:06:28.024Z,9.20
2022-09-28T06:08:54.665Z,9.20
2022-09-28T06:11:33.012Z,9.20
2022-09-28T06:14:05.154Z,9.20
2022-09-28T06:16:32.443Z,9.20
2022-09-28T06:18:59.074Z,9.20
2022-09-28T06:21:42.097Z,9.20
2022-09-28T06:24:08.895Z,9.30
2022-09-28T06:26:36.537Z,9.20
2022-09-28T06:29:04.154Z,9.20
2022-09-28T06:31:31.293Z,9.20
2022-09-28T06:33:57.925Z,9.20
2022-09-28T06:36:24.545Z,9.20
2022-09-28T06:38:51.195Z,9.20
2022-09-28T06:41:18.329Z,9.20
2022-09-28T06:43:47.394Z,9.20
2022-09-28T06:46:32.789Z,9.20
2022-09-28T06:49:31.712Z,9.20
2022-09-28T06:52:11.806Z,9.20
2022-09-28T06:55:01.765Z,9.20
2022-09-28T06:57:46.892Z,9.20
2022-09-28T07:00:14.335Z,9.30
2022-09-28T07:02:43.628Z,9.30
2022-09-28T07:05:45.902Z,9.30
2022-09-28T07:08:35.506Z,9.40
2022-09-28T07:11:26.846Z,9.40
2022-09-28T07:14:41.112Z,9.50
2022-09-28T07:17:13.574Z,9.50
2022-09-28T07:19:41.622Z,9.60
2022-09-28T07:22:08.184Z,9.70
2022-09-28T07:24:34.753Z,9.70
2022-09-28T07:27:20.194Z,9.70
2022-09-28T07:30:14.216Z,9.80
2022-09-28T07:32:55.941Z,9.80
2022-09-28T07:35:37.361Z,9.90
2022-09-28T07:38:07.934Z,10.00
2022-09-28T07:40:54.718Z,10.00
2022-09-28T07:43:22.524Z,10.10
2022-09-28T07:45:54.802Z,10.10
2022-09-28T07:48:22.802Z,10.20
2022-09-28T07:51:11.303Z,10.20
2022-09-28T07:53:40.246Z,10.20
2022-09-28T07:56:19.527Z,10.10
2022-09-28T07:58:53.653Z,10.20
2022-09-28T08:01:43.058Z,10.20
2022-09-28T08:04:13.720Z,10.20
2022-09-28T08:06:42.418Z,10.20
2022-09-28T08:09:11.017Z,10.20
2022-09-28T08:11:57.753Z,10.30
2022-09-28T08:14:37.526Z,10.40
2022-09-28T08:17:23.300Z,10.50
2022-09-28T08:20:12.974Z,10.60
2022-09-28T08:22:39.862Z,10.70
2022-09-28T08:25:07.168Z,10.90
2022-09-28T08:27:33.817Z,11.00
2022-09-28T08:30:01.378Z,11.20
2022-09-28T08:32:38.935Z,11.40
2022-09-28T08:35:25.700Z,11.40
2022-09-28T08:38:09.170Z,11.50
2022-09-28T08:41:39.513Z,11.60
2022-09-28T08:44:49.628Z,11.70
2022-09-28T08:48:04.054Z,11.70
2022-09-28T08:50:45.781Z,11.90
2022-09-28T08:53:48.197Z,12.00
2022-09-28T08:56:39.218Z,12.10
2022-09-28T08:59:20.763Z,12.20
2022-09-28T09:01:58.193Z,12.30
2022-09-28T09:04:26.300Z,12.50
2022-09-28T09:07:15.917Z,12.70
2022-09-28T09:10:18.419Z,12.70
2022-09-28T09:12:58.727Z,12.90
2022-09-28T09:16:04.911Z,12.90
2022-09-28T09:19:14.409Z,12.90
2022-09-28T09:22:05.172Z,13.00
2022-09-28T09:24:47.926Z,13.10
2022-09-28T09:27:31.199Z,13.20
2022-09-28T09:30:04.089Z,13.40
2022-09-28T09:32:54.324Z,13.50
2022-09-28T09:35:31.923Z,13.60
2022-09-28T09:38:36.229Z,13.60
2022-09-28T09:41:46.465Z,13.70
2022-09-28T09:44:57.114Z,13.90
2022-09-28T09:47:46.972Z,14.00
2022-09-28T09:50:40.604Z,14.10
2022-09-28T09:53:41.845Z,14.20
2022-09-28T09:56:19.955Z,14.20
2022-09-28T09:59:18.744Z,14.20
2022-09-28T10:02:03.640Z,14.20
2022-09-28T10:04:46.991Z,14.20
2022-09-28T10:07:33.367Z,14.30
2022-09-28T10:10:02.327Z,14.30
2022-09-28T10:12:40.139Z,14.50
2022-09-28T10:15:07.941Z,14.60
2022-09-28T10:17:46.781Z,14.60
2022-09-28T10:20:36.932Z,14.70
2022-09-28T10:23:29.218Z,14.70
2022-09-28T10:26:25.069Z,14.60
2022-09-28T10:28:54.552Z,14.50
2022-09-28T10:31:45.249Z,14.50
2022-09-28T10:34:29.801Z,14.50
2022-09-28T10:37:04.072Z,14.60
2022-09-28T10:39:55.607Z,14.60
2022-09-28T10:42:28.348Z,14.60
2022-09-28T10:45:05.150Z,14.80
2022-09-28T10:47:35.500Z,14.70
2022-09-28T10:50:19.759Z,14.60
2022-09-28T10:52:46.586Z,14.50
2022-09-28T10:55:39.297Z,14.40
2022-09-28T10:58:26.932Z,14.20
2022-09-28T11:01:00.382Z,14.10
2022-09-28T11:03:29.886Z,14.00
2022-09-28T11:06:07.075Z,13.90
2022-09-28T11:08:41.730Z,13.90
2022-09-28T11:11:14.387Z,13.80
2022-09-28T11:14:12.142Z,13.70
2022-09-28T11:16:38.847Z,13.80
2022-09-28T11:19:29.408Z,13.80
2022-09-28T11:21:56.009Z,13.90
2022-09-28T11:24:31.340Z,14.00
2022-09-28T11:27:02.332Z,14.10
2022-09-28T11:29:38.388Z,14.20
2022-09-28T11:32:39.733Z,14.20
2022-09-28T11:35:51.570Z,14.20
2022-09-28T11:38:40.673Z,14.20
2022-09-28T11:41:28.826Z,14.20
2022-09-28T11:44:16.894Z,14.20
2022-09-28T11:47:11.787Z,14.20
2022-09-28T11:49:48.282Z,14.30
2022-09-28T11:52:27.462Z,14.20
2022-09-28T11:55:11.939Z,14.10
2022-09-28T11:57:43.129Z,14.00
2022-09-28T12:00:31.025Z,13.80
2022-09-28T12:03:12.122Z,13.70
2022-09-28T12:05:44.406Z,13.40
2022-09-28T12:08:28.532Z,13.20
2022-09-28T12:11:27.060Z,13.00
2022-09-28T12:14:27.114Z,12.80
2022-09-28T12:17:06.933Z,13.00
2022-09-28T12:19:44.005Z,13.20
2022-09-28T12:22:21.991Z,13.40
2022-09-28T12:24:56.248Z,13.50
2022-09-28T12:27:47.722Z,13.50
2022-09-28T12:30:19.331Z,13.40
2022-09-28T12:33:06.990Z,13.40
2022-09-28T12:36:08.715Z,13.40
2022-09-28T12:39:21.798Z,13.50
2022-09-28T12:42:32.609Z,13.50
2022-09-28T12:45:12.285Z,13.60
2022-09-28T12:47:57.101Z,13.50
2022-09-28T12:50:39.900Z,13.50
2022-09-28T12:53:47.225Z,13.50
2022-09-28T12:56:47.166Z,13.40
2022-09-28T12:59:35.891Z,13.60
2022-09-28T13:02:21.560Z,13.70
2022-09-28T13:05:16.429Z,13.80
2022-09-28T13:08:08.340Z,13.70
2022-09-28T13:10:55.177Z,13.70
2022-09-28T13:13:41.127Z,13.60
2022-09-28T13:16:34.585Z,13.50
2022-09-28T13:19:16.800Z,13.40
2022-09-28T13:22:13.017Z,13.30
2022-09-28T13:24:44.199Z,13.30
2022-09-28T13:27:15.527Z,13.30
2022-09-28T13:29:43.365Z,13.30
2022-09-28T13:32:12.576Z,13.40
2022-09-28T13:34:39.946Z,13.50
2022-09-28T13:37:20.269Z,13.60
2022-09-28T13:39:56.695Z,13.80
2022-09-28T13:42:42.286Z,13.80
2022-09-28T13:45:14.863Z,13.90
2022-09-28T13:48:04.719Z,13.80
2022-09-28T13:51:01.125Z,13.70
2022-09-28T13:53:36.830Z,13.70
2022-09-28T13:56:30.151Z,13.80
2022-09-28T13:59:17.297Z,13.80
2022-09-28T14:02:13.459Z,13.70
2022-09-28T14:05:25.477Z,13.50
2022-09-28T14:08:09.150Z,13.30
2022-09-28T14:10:53.161Z,13.20
2022-09-28T14:13:41.801Z,13.20
2022-09-28T14:16:17.701Z,13.20
2022-09-28T14:18:49.014Z,13.10
2022-09-28T14:21:47.046Z,13.00
2022-09-28T14:24:26.550Z,13.00
2022-09-28T14:27:15.020Z,13.00
2022-09-28T14:29:45.997Z,13.00
2022-09-28T14:32:12.897Z,13.00
2022-09-28T14:34:45.405Z,13.10
2022-09-28T14:37:49.640Z,13.00
2022-09-28T14:40:48.697Z,13.00
2022-09-28T14:43:45.240Z,13.00
2022-09-28T14:46:12.173Z,12.90
2022-09-28T14:48:53.641Z,12.60
2022-09-28T14:51:26.503Z,12.20
2022-09-28T14:54:10.116Z,12.20
2022-09-28T14:56:52.503Z,12.40
2022-09-28T14:59:30.634Z,12.40
2022-09-28T15:02:14.937Z,12.30
2022-09-28T15:05:16.886Z,12.40
2022-09-28T15:07:47.871Z,12.40
2022-09-28T15:10:31.397Z,12.30
2022-09-28T15:13:01.320Z,12.20
2022-09-28T15:15:35.335Z,12.10
2022-09-28T15:18:45.800Z,12.10
2022-09-28T15:21:13.484Z,12.00
2022-09-28T15:23:45.273Z,12.00
2022-09-28T15:26:31.020Z,12.00
2022-09-28T15:29:04.077Z,11.90
2022-09-28T15:31:36.045Z,11.80
2022-09-28T15:34:21.591Z,11.80
2022-09-28T15:36:50.102Z,11.80
2022-09-28T15:39:32.185Z,11.70
2022-09-28T15:41:59.902Z,11.70
2022-09-28T15:44:35.223Z,11.80
2022-09-28T15:47:13.845Z,11.70
2022-09-28T15:49:57.108Z,11.60
2022-09-28T15:52:38.824Z,11.60
2022-09-28T15:55:31.381Z,11.70
2022-09-28T15:58:07.479Z,11.80
2022-09-28T16:00:34.955Z,11.90
2022-09-28T16:03:06.672Z,11.80
2022-09-28T16:05:46.633Z,11.70
2022-09-28T16:08:22.029Z,11.70
2022-09-28T16:11:12.602Z,11.60
2022-09-28T16:14:02.037Z,11.50
2022-09-28T16:16:32.785Z,11.50
2022-09-28T16:19:02.002Z,11.40
2022-09-28T16:21:47.967Z,11.30
2022-09-28T16:24:33.150Z,11.30
2022-09-28T16:27:21.801Z,11.40
2022-09-28T16:30:13.149Z,11.30
2022-09-28T16:32:50.859Z,11.20
2022-09-28T16:35:22.531Z,11.20
2022-09-28T16:38:03.278Z,11.20
2022-09-28T16:40:32.163Z,11.10
2022-09-28T16:43:03.121Z,11.00
2022-09-28T16:45:29.842Z,11.00
2022-09-28T16:47:57.572Z,11.00
2022-09-28T16:50:25.463Z,11.00
2022-09-28T16:53:20.338Z,11.00
2022-09-28T16:55:49.450Z,10.90
2022-09-28T16:58:16.126Z,10.80
2022-09-28T17:00:43.413Z,10.60
2022-09-28T17:03:13.888Z,10.60
2022-09-28T17:05:40.864Z,10.60
2022-09-28T17:08:13.206Z,10.60
2022-09-28T17:11:13.540Z,10.70
2022-09-28T17:13:37.734Z,10.70
2022-09-28T17:16:10.372Z,10.80
2022-09-28T17:18:38.939Z,10.80
2022-09-28T17:21:15.732Z,10.80
2022-09-28T17:23:43.504Z,10.70
2022-09-28T17:26:27.661Z,10.70
2022-09-28T17:28:54.428Z,10.70
2022-09-28T17:31:21.150Z,10.80
2022-09-28T17:33:47.841Z,10.70
2022-09-28T17:36:16.941Z,10.70
2022-09-28T17:38:44.818Z,10.80
2022-09-28T17:41:18.087Z,10.80
2022-09-28T17:43:47.096Z,10.80
2022-09-28T17:46:26.122Z,10.80
2022-09-28T17:48:53.294Z,10.80
2022-09-28T17:51:20.153Z,10.70
2022-09-28T17:53:46.765Z,10.70
2022-09-28T17:56:13.447Z,10.70
2022-09-28T17:58:40.031Z,10.70
2022-09-28T18:01:07.040Z,10.70
2022-09-28T18:03:33.868Z,10.70
2022-09-28T18:06:06.552Z,10.60
2022-09-28T18:08:34.041Z,10.60
2022-09-28T18:11:01.601Z,10.60
2022-09-28T18:13:28.386Z,10.50
2022-09-28T18:15:55.838Z,10.50
2022-09-28T18:18:23.937Z,10.50
2022-09-28T18:20:50.799Z,10.40
2022-09-28T18:23:18.022Z,10.40
2022-09-28T18:25:45.741Z,10.40
2022-09-28T18:28:13.625Z,10.30
2022-09-28T18:30:42.360Z,10.30
2022-09-28T18:33:09.615Z,10.30
2022-09-28T18:35:36.779Z,10.20
2022-09-28T18:38:07.737Z,10.20
2022-09-28T18:40:35.365Z,10.10
2022-09-28T18:43:02.921Z,10.10
2022-09-28T18:45:29.669Z,10.10
2022-09-28T18:47:57.090Z,10.10
2022-09-28T18:50:23.800Z,10.00
2022-09-28T18:52:52.912Z,10.00
2022-09-28T18:55:19.959Z,9.90
2022-09-28T18:57:47.482Z,9.90
2022-09-28T19:00:15.149Z,9.90
2022-09-28T19:02:42.006Z,9.90
2022-09-28T19:05:08.869Z,9.90
2022-09-28T19:07:35.620Z,9.90
2022-09-28T19:10:02.538Z,9.90
2022-09-28T19:12:33.060Z,9.90
2022-09-28T19:14:59.724Z,10.00
2022-09-28T19:17:26.491Z,10.00
2022-09-28T19:19:53.104Z,10.00
2022-09-28T19:22:19.713Z,10.10
2022-09-28T19:24:46.373Z,10.10
2022-09-28T19:27:12.994Z,10.10
2022-09-28T19:29:39.682Z,10.00
2022-09-28T19:32:06.259Z,10.00
2022-09-28T19:34:32.877Z,9.90
2022-09-28T19:37:03.702Z,9.90
2022-09-28T19:39:30.983Z,10.00
2022-09-28T19:41:59.692Z,10.00
2022-09-28T19:44:28.288Z,10.10
2022-09-28T19:46:57.446Z,10.20
2022-09-28T19:49:26.053Z,10.30
2022-09-28T19:52:13.871Z,10.30
2022-09-28T19:54:56.640Z,10.30
2022-09-28T19:57:29.326Z,10.30
2022-09-28T20:00:01.690Z,10.30
2022-09-28T20:02:32.447Z,10.30
2022-09-28T20:04:59.177Z,10.30
2022-09-28T20:07:25.809Z,10.30
2022-09-28T20:09:52.432Z,10.30
2022-09-28T20:12:19.054Z,10.30
2022-09-28T20:14:45.769Z,10.30
2022-09-28T20:17:12.476Z,10.30
2022-09-28T20:19:39.242Z,10.30
2022-09-28T20:22:05.892Z,10.40
2022-09-28T20:24:32.860Z,10.40
2022-09-28T20:27:00.597Z,10.30
2022-09-28T20:29:27.217Z,10.30
2022-09-28T20:31:53.794Z,10.30
2022-09-28T20:34:20.520Z,10.20
2022-09-28T20:36:49.439Z,10.30
2022-09-28T20:39:16.198Z,10.30
2022-09-28T20:41:42.888Z,10.20
2022-09-28T20:44:09.870Z,10.20
2022-09-28T20:46:36.875Z,10.20
2022-09-28T20:49:04.624Z,10.20
2022-09-28T20:51:31.693Z,10.20
2022-09-28T20:53:58.878Z,10.20
2022-09-28T20:56:31.350Z,10.20
2022-09-28T20:58:58.002Z,10.20
2022-09-28T21:01:27.359Z,10.20
2022-09-28T21:04:00.992Z,10.20
2022-09-28T21:06:35.937Z,10.30
2022-09-28T21:09:03.671Z,10.30
2022-09-28T21:11:30.288Z,10.30
2022-09-28T21:13:59.313Z,10.30
2022-09-28T21:16:28.414Z,10.30
2022-09-28T21:18:55.097Z,10.20
2022-09-28T21:21:23.078Z,10.20
2022-09-28T21:23:54.050Z,10.20
2022-09-28T21:26:26.147Z,10.10
2022-09-28T21:29:00.348Z,10.10
2022-09-28T21:31:30.651Z,10.20
2022-09-28T21:33:58.104Z,10.20
2022-09-28T21:36:25.467Z,10.20
2022-09-28T21:38:53.415Z,10.20
2022-09-28T21:41:20.045Z,10.30
2022-09-28T21:43:46.718Z,10.30
2022-09-28T21:46:13.541Z,10.30
2022-09-28T21:48:40.383Z,10.20
2022-09-28T21:51:10.021Z,10.30
2022-09-28T21:53:38.051Z,10.30
2022-09-28T21:56:06.820Z,10.30
2022-09-28T21:58:35.313Z,10.30
2022-09-28T22:01:06.901Z,10.30
2022-09-28T22:03:35.742Z,10.20
2022-09-28T22:06:05.995Z,10.20
2022-09-28T22:08:33.362Z,10.10
2022-09-28T22:11:01.919Z,10.10
2022-09-28T22:13:29.380Z,10.10
2022-09-28T22:15:59.915Z,10.10
2022-09-28T22:18:28.370Z,10.20
2022-09-28T22:21:10.045Z,10.20
2022-09-28T22:23:38.089Z,10.30
2022-09-28T22:26:17.768Z,10.30
2022-09-28T22:28:52.612Z,10.40
2022-09-28T22:31:21.478Z,10.40
2022-09-28T22:33:48.570Z,10.30
2022-09-28T22:36:16.573Z,10.30
2022-09-28T22:38:44.502Z,10.40
2022-09-28T22:41:11.837Z,10.40
2022-09-28T22:43:38.761Z,10.40
2022-09-28T22:46:11.224Z,10.40
2022-09-28T22:48:38.430Z,10.40
2022-09-28T22:51:06.489Z,10.40
2022-09-28T22:53:34.278Z,10.50
2022-09-28T22:56:01.535Z,10.50
2022-09-28T22:58:28.097Z,10.40
2022-09-28T23:00:56.973Z,10.40
2022-09-28T23:03:23.977Z,10.30
2022-09-28T23:05:55.447Z,10.30
2022-09-28T23:08:23.284Z,10.20
2022-09-28T23:10:50.781Z,10.30
2022-09-28T23:13:17.784Z,10.20
2022-09-28T23:15:53.805Z,10.20
2022-09-28T23:18:20.638Z,10.20
2022-09-28T23:20:58.511Z,10.20
2022-09-28T23:23:25.976Z,10.20
2022-09-28T23:25:53.280Z,10.30
2022-09-28T23:28:21.339Z,10.30
2022-09-28T23:30:48.675Z,10.20
2022-09-28T23:33:17.147Z,10.20
2022-09-28T23:35:44.384Z,10.10
2022-09-28T23:38:17.831Z,10.10
2022-09-28T23:40:47.776Z,10.10
2022-09-28T23:43:14.541Z,10.10
2022-09-28T23:45:43.823Z,10.10
2022-09-28T23:48:10.755Z,10.10
2022-09-28T23:50:37.392Z,10.10
2022-09-28T23:53:04.296Z,10.20
2022-09-28T23:55:30.865Z,10.20
2022-09-28T23:57:58.640Z,10.30
